createdAt,value
2022-11-10T00:02:05.568Z,13.80
2022-11-10T00:04:51.180Z,13.80
2022-11-10T00:07:37.056Z,13.80
2022-11-10T00:10:22.748Z,13.80
2022-11-10T00:13:08.775Z,13.80
2022-11-10T00:16:13.202Z,13.80
2022-11-10T00:18:58.852Z,13.80
2022-11-10T00:21:44.338Z,13.80
2022-11-10T00:24:29.914Z,13.80
2022-11-10T00:27:15.444Z,13.80
2022-11-10T00:30:00.873Z,13.80
2022-11-10T00:32:48.300Z,13.90
2022-11-10T00:35:33.594Z,13.80
2022-11-10T00:38:19.188Z,13.80
2022-11-10T00:41:05.064Z,13.80
2022-11-10T00:43:50.499Z,13.90
2022-11-10T00:46:36.008Z,13.90
2022-11-10T00:49:21.579Z,13.80
2022-11-10T00:52:07.496Z,13.90
2022-11-10T00:54:52.897Z,13.90
2022-11-10T00:57:38.487Z,13.90
2022-11-10T01:00:24.200Z,13.90
2022-11-10T01:03:16.949Z,13.90
2022-11-10T01:06:13.431Z,13.90
2022-11-10T01:08:59.085Z,13.90
2022-11-10T01:11:44.493Z,13.90
2022-11-10T01:14:30.112Z,13.90
2022-11-10T01:17:15.749Z,13.90
2022-11-10T01:20:01.199Z,13.80
2022-11-10T01:22:46.929Z,13.80
2022-11-10T01:25:32.085Z,13.80
2022-11-10T01:28:17.743Z,13.90
2022-11-10T01:31:06.389Z,13.90
2022-11-10T01:33:51.840Z,13.90
2022-11-10T01:36:37.437Z,13.90
2022-11-10T01:39:23.039Z,13.90
2022-11-10T01:42:08.750Z,13.90
2022-11-10T01:45:25.194Z,13.90
2022-11-10T01:48:17.343Z,13.80
2022-11-10T01:51:11.985Z,13.80
2022-11-10T01:54:02.067Z,13.80
2022-11-10T01:56:51.467Z,13.70
2022-11-10T01:59:42.022Z,13.60
2022-11-10T02:02:56.405Z,13.60
2022-11-10T02:05:44.234Z,13.60
2022-11-10T02:08:30.227Z,13.50
2022-11-10T02:11:16.821Z,13.50
2022-11-10T02:14:02.419Z,13.50
2022-11-10T02:16:47.752Z,13.50
2022-11-10T02:19:41.580Z,13.40
2022-11-10T02:22:27.206Z,13.50
2022-11-10T02:25:19.518Z,13.50
2022-11-10T02:28:04.975Z,13.50
2022-11-10T02:30:51.115Z,13.50
2022-11-10T02:33:37.219Z,13.40
2022-11-10T02:36:22.566Z,13.40
2022-11-10T02:39:08.512Z,13.40
2022-11-10T02:41:54.149Z,13.40
2022-11-10T02:44:40.512Z,13.40
2022-11-10T02:47:25.782Z,13.50
2022-11-10T02:50:11.424Z,13.40
2022-11-10T02:52:56.978Z,13.40
2022-11-10T02:55:42.608Z,13.50
2022-11-10T02:58:27.962Z,13.50
2022-11-10T03:01:13.594Z,13.40
2022-11-10T03:03:59.054Z,13.50
2022-11-10T03:06:44.654Z,13.40
2022-11-10T03:09:30.147Z,13.40
2022-11-10T03:12:15.622Z,13.40
2022-11-10T03:15:01.255Z,13.40
2022-11-10T03:17:46.731Z,13.40
2022-11-10T03:20:32.136Z,13.40
2022-11-10T03:23:19.042Z,13.40
2022-11-10T03:26:06.021Z,13.40
2022-11-10T03:28:51.572Z,13.40
2022-11-10T03:31:36.949Z,13.40
2022-11-10T03:34:22.539Z,13.40
2022-11-10T03:37:09.445Z,13.40
2022-11-10T03:39:54.781Z,13.40
2022-11-10T03:42:44.705Z,13.30
2022-11-10T03:45:29.943Z,13.30
2022-11-10T03:48:15.423Z,13.30
2022-11-10T03:51:01.019Z,13.30
2022-11-10T03:53:46.676Z,13.30
2022-11-10T03:56:32.167Z,13.30
2022-11-10T03:59:17.778Z,13.30
2022-11-10T04:02:03.555Z,13.30
2022-11-10T04:05:07.838Z,13.30
2022-11-10T04:08:16.654Z,13.30
2022-11-10T04:11:03.370Z,13.30
2022-11-10T04:14:07.014Z,13.30
2022-11-10T04:16:52.636Z,13.30
2022-11-10T04:19:38.007Z,13.20
2022-11-10T04:22:41.936Z,13.30
2022-11-10T04:25:27.420Z,13.30
2022-11-10T04:28:12.878Z,13.30
2022-11-10T04:30:58.483Z,13.30
2022-11-10T04:33:45.570Z,13.40
2022-11-10T04:36:34.201Z,13.40
2022-11-10T04:39:19.769Z,13.40
2022-11-10T04:42:05.583Z,13.40
2022-11-10T04:44:51.117Z,13.40
2022-11-10T04:47:36.520Z,13.50
2022-11-10T04:50:22.226Z,13.40
2022-11-10T04:53:07.621Z,13.40
2022-11-10T04:55:54.295Z,13.40
2022-11-10T04:58:39.768Z,13.40
2022-11-10T05:01:27.521Z,13.40
2022-11-10T05:04:13.493Z,13.40
2022-11-10T05:06:59.800Z,13.40
2022-11-10T05:09:45.507Z,13.30
2022-11-10T05:12:31.826Z,13.30
2022-11-10T05:15:17.698Z,13.30
2022-11-10T05:18:03.089Z,13.20
2022-11-10T05:20:49.505Z,13.20
2022-11-10T05:23:41.882Z,13.20
2022-11-10T05:26:27.394Z,13.20
2022-11-10T05:29:12.604Z,13.20
2022-11-10T05:31:58.098Z,13.10
2022-11-10T05:34:43.418Z,13.20
2022-11-10T05:37:28.940Z,13.10
2022-11-10T05:40:14.626Z,13.10
2022-11-10T05:43:00.029Z,13.10
2022-11-10T05:45:45.657Z,13.10
2022-11-10T05:48:30.887Z,13.10
2022-11-10T05:51:16.479Z,13.10
2022-11-10T05:54:01.842Z,13.20
2022-11-10T05:56:47.353Z,13.20
2022-11-10T05:59:33.096Z,13.20
2022-11-10T06:02:18.599Z,13.20
2022-11-10T06:05:04.595Z,13.20
2022-11-10T06:07:49.805Z,13.30
2022-11-10T06:10:36.913Z,13.30
2022-11-10T06:13:22.846Z,13.40
2022-11-10T06:16:08.397Z,13.40
2022-11-10T06:18:54.013Z,13.40
2022-11-10T06:21:39.643Z,13.40
2022-11-10T06:24:24.856Z,13.40
2022-11-10T06:27:10.533Z,13.50
2022-11-10T06:29:56.088Z,13.50
2022-11-10T06:32:44.789Z,13.40
2022-11-10T06:35:30.804Z,13.50
2022-11-10T06:38:16.299Z,13.50
2022-11-10T06:41:01.796Z,13.50
2022-11-10T06:43:47.411Z,13.50
2022-11-10T06:46:34.977Z,13.50
2022-11-10T06:49:23.691Z,13.40
2022-11-10T06:52:09.446Z,13.50
2022-11-10T06:54:54.912Z,13.50
2022-11-10T06:57:40.633Z,13.50
2022-11-10T07:00:27.808Z,13.50
2022-11-10T07:03:15.224Z,13.50
2022-11-10T07:06:00.515Z,13.50
2022-11-10T07:08:46.191Z,13.50
2022-11-10T07:11:31.373Z,13.50
2022-11-10T07:14:17.028Z,13.50
2022-11-10T07:17:02.706Z,13.50
2022-11-10T07:19:48.295Z,13.50
2022-11-10T07:22:33.831Z,13.50
2022-11-10T07:25:19.438Z,13.50
2022-11-10T07:28:07.658Z,13.50
2022-11-10T07:30:52.891Z,13.50
2022-11-10T07:33:38.361Z,13.50
2022-11-10T07:36:23.888Z,13.60
2022-11-10T07:39:13.317Z,13.60
2022-11-10T07:41:58.873Z,13.60
2022-11-10T07:44:44.442Z,13.70
2022-11-10T07:47:29.950Z,13.70
2022-11-10T07:50:15.852Z,13.80
2022-11-10T07:53:10.324Z,13.80
2022-11-10T07:55:58.467Z,13.90
2022-11-10T07:58:43.742Z,13.90
2022-11-10T08:01:29.621Z,13.80
2022-11-10T08:04:15.102Z,13.80
2022-11-10T08:07:00.429Z,13.80
2022-11-10T08:09:45.981Z,13.80
2022-11-10T08:12:33.675Z,13.80
2022-11-10T08:15:19.307Z,13.80
2022-11-10T08:18:18.037Z,13.80
2022-11-10T08:21:05.132Z,13.90
2022-11-10T08:23:50.677Z,14.00
2022-11-10T08:26:36.062Z,14.20
2022-11-10T08:29:21.614Z,14.40
2022-11-10T08:32:07.417Z,14.60
2022-11-10T08:34:52.998Z,14.70
2022-11-10T08:37:38.659Z,14.70
2022-11-10T08:40:27.820Z,14.80
2022-11-10T08:43:14.379Z,14.80
2022-11-10T08:46:01.630Z,14.90
2022-11-10T08:48:47.411Z,14.90
2022-11-10T08:51:38.727Z,14.90
2022-11-10T08:54:24.674Z,15.00
2022-11-10T08:57:10.331Z,15.00
2022-11-10T08:59:55.880Z,15.00
2022-11-10T09:02:41.709Z,15.10
2022-11-10T09:05:27.094Z,15.10
2022-11-10T09:08:12.925Z,15.10
2022-11-10T09:11:01.555Z,15.10
2022-11-10T09:13:47.347Z,15.10
2022-11-10T09:16:32.571Z,15.10
2022-11-10T09:19:19.957Z,15.10
2022-11-10T09:22:07.412Z,15.10
2022-11-10T09:24:52.817Z,15.20
2022-11-10T09:27:39.048Z,15.30
2022-11-10T09:30:25.460Z,15.50
2022-11-10T09:33:11.397Z,15.70
2022-11-10T09:35:59.515Z,15.80
2022-11-10T09:38:45.466Z,15.80
2022-11-10T09:41:31.201Z,15.80
2022-11-10T09:44:19.531Z,15.80
2022-11-10T09:47:18.962Z,15.70
2022-11-10T09:50:26.947Z,15.80
2022-11-10T09:53:21.682Z,15.80
2022-11-10T09:56:12.119Z,15.90
2022-11-10T09:58:59.038Z,16.10
2022-11-10T10:02:01.096Z,16.30
2022-11-10T10:05:07.675Z,16.70
2022-11-10T10:08:00.593Z,16.90
2022-11-10T10:11:01.050Z,17.20
2022-11-10T10:14:11.104Z,17.50
2022-11-10T10:17:17.442Z,17.70
2022-11-10T10:20:20.202Z,18.10
2022-11-10T10:24:07.285Z,18.90
2022-11-10T10:26:45.268Z,19.70
2022-11-10T10:29:37.971Z,20.40
2022-11-10T10:32:23.498Z,20.60
2022-11-10T10:35:17.665Z,20.70
2022-11-10T10:38:05.562Z,21.00
2022-11-10T10:40:53.370Z,21.20
2022-11-10T10:43:44.392Z,21.50
2022-11-10T10:46:35.688Z,21.30
2022-11-10T10:49:31.031Z,21.30
2022-11-10T10:52:20.303Z,21.40
2022-11-10T10:55:07.774Z,21.80
2022-11-10T10:57:59.279Z,22.40
2022-11-10T11:00:47.568Z,23.30
2022-11-10T11:03:50.373Z,24.70
2022-11-10T11:06:36.547Z,26.30
2022-11-10T11:09:28.037Z,27.40
2022-11-10T11:12:22.336Z,28.40
2022-11-10T11:15:21.710Z,28.90
2022-11-10T11:18:19.342Z,28.90
2022-11-10T11:21:19.574Z,29.40
2022-11-10T11:24:39.753Z,29.90
2022-11-10T11:27:31.299Z,30.20
2022-11-10T11:30:22.515Z,30.30
2022-11-10T11:33:30.041Z,30.50
2022-11-10T11:36:39.749Z,30.20
2022-11-10T11:39:40.339Z,30.20
2022-11-10T11:42:31.570Z,30.30
2022-11-10T11:45:35.444Z,30.20
2022-11-10T11:48:42.223Z,30.30
2022-11-10T11:51:38.898Z,30.00
2022-11-10T11:54:24.070Z,28.90
2022-11-10T11:57:29.377Z,27.40
2022-11-10T12:00:19.076Z,26.00
2022-11-10T12:03:42.832Z,24.70
2022-11-10T12:06:46.556Z,23.70
2022-11-10T12:09:51.029Z,22.60
2022-11-10T12:13:01.287Z,21.90
2022-11-10T12:15:59.579Z,21.20
2022-11-10T12:19:03.702Z,20.50
2022-11-10T12:21:59.215Z,20.10
2022-11-10T12:24:44.678Z,19.60
2022-11-10T12:27:40.031Z,19.30
2022-11-10T12:30:25.830Z,19.00
2022-11-10T12:33:30.918Z,18.80
2022-11-10T12:36:20.051Z,18.70
2022-11-10T12:39:28.406Z,18.50
2022-11-10T12:42:24.470Z,18.50
2022-11-10T12:45:24.196Z,18.40
2022-11-10T12:48:13.181Z,18.50
2022-11-10T12:51:15.140Z,18.50
2022-11-10T12:54:00.917Z,18.50
2022-11-10T12:57:05.863Z,18.50
2022-11-10T12:59:59.981Z,18.40
2022-11-10T13:02:46.764Z,18.40
2022-11-10T13:05:42.048Z,18.40
2022-11-10T13:08:36.893Z,18.40
2022-11-10T13:11:34.214Z,18.60
2022-11-10T13:14:23.880Z,18.50
2022-11-10T13:17:29.728Z,18.50
2022-11-10T13:20:39.941Z,18.60
2022-11-10T13:23:56.166Z,18.70
2022-11-10T13:26:44.656Z,18.70
2022-11-10T13:29:34.822Z,18.50
2022-11-10T13:32:23.198Z,18.40
2022-11-10T13:35:30.479Z,18.30
2022-11-10T13:38:43.046Z,18.30
2022-11-10T13:41:32.063Z,18.30
2022-11-10T13:44:28.013Z,18.20
2022-11-10T14:48:17.804Z,17.40
2022-11-10T14:51:21.278Z,17.20
2022-11-10T14:54:12.675Z,17.10
2022-11-10T14:56:58.210Z,16.90
2022-11-10T14:59:43.981Z,16.70
2022-11-10T15:02:29.488Z,16.70
2022-11-10T15:05:16.451Z,16.60
2022-11-10T15:08:03.632Z,16.50
2022-11-10T15:10:53.163Z,16.40
2022-11-10T15:13:39.897Z,16.40
2022-11-10T15:16:38.563Z,16.30
2022-11-10T15:19:35.441Z,16.20
2022-11-10T15:22:21.183Z,16.00
2022-11-10T15:25:32.014Z,15.90
2022-11-10T15:28:33.644Z,15.80
2022-11-10T15:31:29.999Z,15.70
2022-11-10T15:34:48.960Z,15.60
2022-11-10T15:37:34.650Z,15.60
2022-11-10T15:40:31.351Z,15.60
2022-11-10T15:43:27.503Z,15.60
2022-11-10T15:46:18.496Z,15.70
2022-11-10T15:49:04.463Z,15.60
2022-11-10T15:51:59.801Z,15.60
2022-11-10T15:54:45.991Z,15.60
2022-11-10T15:57:31.392Z,15.50
2022-11-10T16:00:17.214Z,15.50
2022-11-10T16:03:02.504Z,15.50
2022-11-10T16:05:48.520Z,15.40
2022-11-10T16:08:35.085Z,15.40
2022-11-10T16:11:22.639Z,15.50
2022-11-10T16:14:14.956Z,15.50
2022-11-10T16:17:00.833Z,15.50
2022-11-10T16:19:46.786Z,15.50
2022-11-10T16:22:31.998Z,15.40
2022-11-10T16:25:23.758Z,15.30
2022-11-10T16:28:25.355Z,15.20
2022-11-10T16:31:12.014Z,15.00
2022-11-10T16:33:57.379Z,14.80
2022-11-10T16:36:46.043Z,14.70
2022-11-10T16:39:31.910Z,14.60
2022-11-10T16:42:17.130Z,14.40
2022-11-10T16:45:02.688Z,14.30
2022-11-10T16:47:51.877Z,14.20
2022-11-10T16:50:37.836Z,14.10
2022-11-10T16:53:27.050Z,14.00
2022-11-10T16:56:17.015Z,14.00
2022-11-10T16:59:03.402Z,13.90
2022-11-10T17:01:49.696Z,13.80
2022-11-10T17:04:35.431Z,13.70
2022-11-10T17:07:25.738Z,13.70
2022-11-10T17:10:16.364Z,13.60
2022-11-10T17:13:01.593Z,13.60
2022-11-10T17:15:47.474Z,13.50
2022-11-10T17:18:34.699Z,13.40
2022-11-10T17:21:22.005Z,13.40
2022-11-10T17:24:08.150Z,13.30
2022-11-10T17:26:53.690Z,13.30
2022-11-10T17:29:39.207Z,13.30
2022-11-10T17:32:49.964Z,13.20
2022-11-10T17:35:36.208Z,13.20
2022-11-10T17:38:28.000Z,13.10
2022-11-10T17:41:19.107Z,13.10
2022-11-10T17:44:04.854Z,13.00
2022-11-10T17:46:50.165Z,13.00
2022-11-10T17:49:35.404Z,13.00
2022-11-10T17:52:20.931Z,13.00
2022-11-10T17:55:06.603Z,12.90
2022-11-10T17:57:51.966Z,12.90
2022-11-10T18:00:37.647Z,12.90
2022-11-10T18:03:23.299Z,12.90
2022-11-10T18:06:12.906Z,12.80
2022-11-10T18:08:58.223Z,12.80
2022-11-10T18:11:44.682Z,12.80
2022-11-10T18:14:33.909Z,12.70
2022-11-10T18:17:19.226Z,12.70
2022-11-10T18:20:05.305Z,12.70
2022-11-10T18:22:50.534Z,12.70
2022-11-10T18:25:36.084Z,12.60
2022-11-10T18:28:21.685Z,12.60
2022-11-10T18:31:13.192Z,12.60
2022-11-10T18:33:58.791Z,12.50
2022-11-10T18:36:44.346Z,12.50
2022-11-10T18:39:30.902Z,12.50
2022-11-10T18:42:16.613Z,12.50
2022-11-10T18:45:02.280Z,12.40
2022-11-10T18:47:47.552Z,12.40
2022-11-10T18:50:33.268Z,12.40
2022-11-10T18:53:18.555Z,12.30
2022-11-10T18:56:04.856Z,12.30
2022-11-10T18:58:56.466Z,12.30
2022-11-10T19:01:42.620Z,12.20
2022-11-10T19:04:28.160Z,12.20
2022-11-10T19:07:13.861Z,12.20
2022-11-10T19:09:59.933Z,12.10
2022-11-10T19:12:45.197Z,12.10
2022-11-10T19:15:30.676Z,12.00
2022-11-10T19:18:16.460Z,12.00
2022-11-10T19:21:10.469Z,12.00
2022-11-10T19:23:59.199Z,12.00
2022-11-10T19:26:44.783Z,11.90
2022-11-10T19:29:30.095Z,11.90
2022-11-10T19:32:16.978Z,11.90
2022-11-10T19:35:05.434Z,11.90
2022-11-10T19:37:53.828Z,11.90
2022-11-10T19:40:39.883Z,11.90
2022-11-10T19:43:25.686Z,11.90
2022-11-10T19:46:20.919Z,11.90
2022-11-10T19:49:06.340Z,11.90
2022-11-10T19:51:52.671Z,11.80
2022-11-10T19:54:38.228Z,11.90
2022-11-10T19:57:23.528Z,11.80
2022-11-10T20:00:11.935Z,11.80
2022-11-10T20:02:57.193Z,11.80
2022-11-10T20:05:43.647Z,11.80
2022-11-10T20:08:30.173Z,11.80
2022-11-10T20:11:17.323Z,11.70
2022-11-10T20:14:03.822Z,11.70
2022-11-10T20:16:49.632Z,11.70
2022-11-10T20:19:40.865Z,11.70
2022-11-10T20:22:26.591Z,11.70
2022-11-10T20:25:12.399Z,11.70
2022-11-10T20:27:58.355Z,11.60
2022-11-10T20:30:44.561Z,11.60
2022-11-10T20:33:32.316Z,11.60
2022-11-10T20:36:27.244Z,11.60
2022-11-10T20:39:12.977Z,11.60
2022-11-10T20:41:58.353Z,11.60
2022-11-10T20:44:44.214Z,11.60
2022-11-10T20:47:30.160Z,11.60
2022-11-10T20:50:19.296Z,11.60
2022-11-10T20:53:08.931Z,11.60
2022-11-10T20:55:59.694Z,11.60
2022-11-10T20:58:45.235Z,11.60
2022-11-10T21:01:30.882Z,11.60
2022-11-10T21:04:16.889Z,11.60
2022-11-10T21:07:02.190Z,11.60
2022-11-10T21:09:47.633Z,11.50
2022-11-10T21:12:51.214Z,11.50
2022-11-10T21:15:40.123Z,11.40
2022-11-10T21:18:28.563Z,11.40
2022-11-10T21:21:23.198Z,11.30
2022-11-10T21:24:09.431Z,11.30
2022-11-10T21:26:56.645Z,11.30
2022-11-10T21:29:42.395Z,11.30
2022-11-10T21:32:28.140Z,11.20
2022-11-10T21:35:13.760Z,11.20
2022-11-10T21:37:59.008Z,11.20
2022-11-10T21:40:44.587Z,11.30
2022-11-10T21:43:30.526Z,11.30
2022-11-10T21:46:16.182Z,11.30
2022-11-10T21:49:07.151Z,11.30
2022-11-10T21:51:53.312Z,11.30
2022-11-10T21:54:38.791Z,11.30
2022-11-10T21:57:24.456Z,11.30
2022-11-10T22:00:11.467Z,11.30
2022-11-10T22:03:03.787Z,11.20
2022-11-10T22:05:49.030Z,11.20
2022-11-10T22:08:36.153Z,11.20
2022-11-10T22:11:40.534Z,11.20
2022-11-10T22:14:44.385Z,11.20
2022-11-10T22:17:49.333Z,11.20
2022-11-10T22:20:34.917Z,11.20
2022-11-10T22:23:40.139Z,11.20
2022-11-10T22:26:25.345Z,11.20
2022-11-10T22:29:10.666Z,11.20
2022-11-10T22:31:56.404Z,11.20
2022-11-10T22:34:41.458Z,11.20
2022-11-10T22:37:32.999Z,11.20
2022-11-10T22:40:36.691Z,11.20
2022-11-10T22:43:40.546Z,11.20
2022-11-10T22:46:25.969Z,11.20
2022-11-10T22:49:16.291Z,11.10
2022-11-10T22:52:01.684Z,11.10
2022-11-10T22:54:47.164Z,11.10
2022-11-10T22:57:32.833Z,11.00
2022-11-10T23:00:18.471Z,10.90
2022-11-10T23:03:04.023Z,10.80
2022-11-10T23:05:56.185Z,10.80
2022-11-10T23:08:43.516Z,10.90
2022-11-10T23:11:30.917Z,10.80
2022-11-10T23:14:16.041Z,10.80
2022-11-10T23:17:01.597Z,10.80
2022-11-10T23:19:46.912Z,10.80
2022-11-10T23:22:32.400Z,10.80
2022-11-10T23:25:18.036Z,10.80
2022-11-10T23:28:04.030Z,10.80
2022-11-10T23:30:49.667Z,10.80
2022-11-10T23:33:36.227Z,10.80
2022-11-10T23:36:24.274Z,10.80
2022-11-10T23:39:09.803Z,10.80
2022-11-10T23:41:55.287Z,10.80
2022-11-10T23:44:40.959Z,10.80
2022-11-10T23:47:26.529Z,10.90
2022-11-10T23:50:12.042Z,10.90
2022-11-10T23:52:57.307Z,10.90
2022-11-10T23:55:43.091Z,10.80
2022-11-10T23:58:29.729Z,10.80
